createdAt,value
2022-12-09T00:02:00.853Z,91.60
2022-12-09T00:04:08.809Z,91.80
2022-12-09T00:06:19.389Z,91.90
2022-12-09T00:08:26.527Z,91.70
2022-12-09T00:10:33.927Z,92.20
2022-12-09T00:12:40.983Z,92.30
2022-12-09T00:14:48.328Z,92.30
2022-12-09T00:16:57.152Z,92.50
2022-12-09T00:19:04.479Z,92.60
2022-12-09T00:21:21.667Z,92.80
2022-12-09T00:23:29.304Z,92.80
2022-12-09T00:25:36.409Z,92.80
2022-12-09T00:27:43.700Z,92.70
2022-12-09T00:29:50.899Z,92.60
2022-12-09T00:31:59.933Z,92.60
2022-12-09T00:34:09.079Z,93.30
2022-12-09T00:36:19.092Z,93.00
2022-12-09T00:38:26.073Z,93.40
2022-12-09T00:40:33.976Z,93.50
2022-12-09T00:42:41.030Z,92.90
2022-12-09T00:44:48.735Z,92.80
2022-12-09T00:46:56.026Z,92.10
2022-12-09T00:49:08.356Z,91.50
2022-12-09T00:51:18.119Z,91.50
2022-12-09T00:53:26.257Z,91.30
2022-12-09T00:55:33.709Z,91.20
2022-12-09T00:57:41.623Z,90.70
2022-12-09T00:59:48.601Z,90.80
2022-12-09T01:01:56.243Z,89.60
2022-12-09T01:04:05.299Z,89.00
2022-12-09T01:06:15.248Z,89.00
2022-12-09T01:08:22.548Z,88.40
2022-12-09T01:10:30.163Z,88.30
2022-12-09T01:12:39.790Z,87.60
2022-12-09T01:14:47.153Z,87.20
2022-12-09T01:16:54.276Z,86.70
2022-12-09T01:19:03.246Z,86.70
2022-12-09T01:21:12.981Z,85.80
2022-12-09T01:23:20.721Z,85.30
2022-12-09T01:25:27.837Z,85.20
2022-12-09T01:27:35.417Z,85.00
2022-12-09T01:29:42.475Z,83.60
2022-12-09T01:31:50.909Z,82.30
2022-12-09T01:33:59.979Z,82.40
2022-12-09T01:36:09.737Z,82.20
2022-12-09T01:38:18.472Z,81.00
2022-12-09T01:40:25.771Z,80.30
2022-12-09T01:42:33.092Z,80.20
2022-12-09T01:44:40.374Z,79.70
2022-12-09T01:46:47.986Z,78.80
2022-12-09T01:48:56.332Z,78.30
2022-12-09T01:51:07.296Z,78.20
2022-12-09T01:53:15.249Z,78.10
2022-12-09T01:55:24.024Z,77.80
2022-12-09T01:57:32.313Z,77.10
2022-12-09T01:59:39.658Z,76.40
2022-12-09T02:01:51.683Z,74.40
2022-12-09T02:03:59.040Z,74.40
2022-12-09T02:06:07.124Z,75.30
2022-12-09T02:08:17.149Z,74.30
2022-12-09T02:10:27.522Z,74.40
2022-12-09T02:12:45.683Z,74.40
2022-12-09T02:15:01.483Z,73.70
2022-12-09T02:17:25.077Z,73.70
2022-12-09T02:19:55.035Z,73.50
2022-12-09T02:22:03.561Z,72.60
2022-12-09T02:24:16.465Z,71.50
2022-12-09T02:26:36.271Z,71.40
2022-12-09T02:29:09.296Z,72.00
2022-12-09T02:31:30.287Z,71.60
2022-12-09T02:33:46.825Z,69.80
2022-12-09T02:35:59.900Z,68.20
2022-12-09T02:38:13.906Z,69.70
2022-12-09T02:40:25.025Z,69.50
2022-12-09T02:42:36.656Z,68.80
2022-12-09T02:44:46.444Z,69.60
2022-12-09T02:46:55.532Z,69.20
2022-12-09T02:49:03.572Z,68.20
2022-12-09T02:51:18.104Z,67.50
2022-12-09T02:53:26.688Z,67.20
2022-12-09T02:55:35.429Z,68.10
2022-12-09T02:57:44.121Z,67.60
2022-12-09T02:59:53.866Z,67.60
2022-12-09T03:02:06.488Z,68.10
2022-12-09T03:04:21.198Z,67.70
2022-12-09T03:06:34.273Z,67.10
2022-12-09T03:08:49.945Z,67.20
2022-12-09T03:11:01.087Z,66.10
2022-12-09T03:13:09.235Z,66.60
2022-12-09T03:15:18.054Z,67.10
2022-12-09T03:17:32.128Z,67.10
2022-12-09T03:19:43.937Z,65.70
2022-12-09T03:21:54.036Z,65.80
2022-12-09T03:24:01.870Z,64.70
2022-12-09T03:26:10.294Z,65.90
2022-12-09T03:28:24.547Z,66.10
2022-12-09T03:30:34.009Z,66.10
2022-12-09T03:32:43.680Z,66.30
2022-12-09T03:34:54.565Z,65.50
2022-12-09T03:37:05.262Z,64.60
2022-12-09T03:39:16.172Z,64.70
2022-12-09T03:41:31.695Z,65.20
2022-12-09T03:43:42.134Z,63.70
2022-12-09T03:45:50.282Z,63.50
2022-12-09T03:47:58.797Z,63.10
2022-12-09T03:50:07.010Z,62.80
2022-12-09T03:52:22.555Z,62.60
2022-12-09T03:54:36.091Z,62.70
2022-12-09T03:56:47.565Z,63.00
2022-12-09T03:58:57.971Z,63.10
2022-12-09T04:01:05.856Z,63.10
2022-12-09T04:03:16.845Z,62.50
2022-12-09T04:05:23.849Z,62.80
2022-12-09T04:07:32.999Z,62.70
2022-12-09T04:09:39.978Z,62.80
2022-12-09T04:11:47.557Z,62.40
2022-12-09T04:13:54.798Z,62.00
2022-12-09T04:16:02.421Z,61.80
2022-12-09T04:18:09.766Z,61.30
2022-12-09T04:20:18.039Z,60.90
2022-12-09T04:22:25.117Z,60.90
2022-12-09T04:24:34.861Z,61.20
2022-12-09T04:26:42.037Z,61.30
2022-12-09T04:28:49.477Z,61.80
2022-12-09T04:30:56.773Z,61.80
2022-12-09T04:33:04.606Z,61.70
2022-12-09T04:35:13.854Z,61.50
2022-12-09T04:37:21.293Z,61.00
2022-12-09T04:39:28.411Z,60.50
2022-12-09T04:41:37.592Z,58.50
2022-12-09T04:43:45.762Z,59.60
2022-12-09T04:45:53.002Z,59.50
2022-12-09T04:48:01.255Z,59.90
2022-12-09T04:50:10.385Z,59.50
2022-12-09T04:52:19.866Z,59.70
2022-12-09T04:54:33.122Z,60.00
2022-12-09T04:56:42.492Z,59.60
2022-12-09T04:58:50.911Z,59.30
2022-12-09T05:00:58.127Z,59.40
2022-12-09T05:03:05.891Z,59.90
2022-12-09T05:05:13.895Z,59.10
2022-12-09T05:07:21.739Z,59.30
2022-12-09T05:09:28.917Z,59.30
2022-12-09T05:11:36.916Z,59.50
2022-12-09T05:13:46.001Z,59.30
2022-12-09T05:15:53.904Z,59.50
2022-12-09T05:18:03.827Z,59.70
2022-12-09T05:20:12.956Z,59.70
2022-12-09T05:22:20.728Z,59.00
2022-12-09T05:24:28.425Z,59.40
2022-12-09T05:26:35.637Z,59.50
2022-12-09T05:28:45.015Z,59.60
2022-12-09T05:30:53.284Z,59.80
2022-12-09T05:33:00.723Z,59.40
2022-12-09T05:35:08.667Z,58.90
2022-12-09T05:37:18.373Z,57.40
2022-12-09T05:39:26.716Z,59.10
2022-12-09T05:41:33.937Z,60.30
2022-12-09T05:43:41.100Z,60.10
2022-12-09T05:45:52.941Z,59.70
2022-12-09T05:48:00.668Z,59.90
2022-12-09T05:50:08.865Z,59.60
2022-12-09T05:52:16.354Z,59.00
2022-12-09T05:54:23.888Z,58.40
2022-12-09T05:56:32.021Z,57.40
2022-12-09T05:58:39.762Z,57.80
2022-12-09T06:00:49.100Z,58.00
2022-12-09T06:02:56.320Z,57.90
2022-12-09T06:05:05.099Z,57.30
2022-12-09T06:07:12.989Z,56.50
2022-12-09T06:09:21.202Z,57.30
2022-12-09T06:11:29.154Z,57.70
2022-12-09T06:13:36.711Z,57.60
2022-12-09T06:15:44.058Z,57.40
2022-12-09T06:17:53.853Z,56.80
2022-12-09T06:20:01.080Z,56.60
2022-12-09T06:22:08.956Z,56.50
2022-12-09T06:24:16.039Z,56.10
2022-12-09T06:26:26.060Z,56.40
2022-12-09T06:28:33.266Z,56.30
2022-12-09T06:30:40.873Z,56.00
2022-12-09T06:32:48.326Z,56.60
2022-12-09T06:34:58.094Z,56.40
2022-12-09T06:37:05.282Z,56.30
2022-12-09T06:39:13.138Z,56.40
2022-12-09T06:41:20.653Z,56.70
2022-12-09T06:43:28.339Z,56.70
2022-12-09T06:45:35.431Z,56.80
2022-12-09T06:47:42.978Z,56.70
2022-12-09T06:49:50.400Z,56.70
2022-12-09T06:51:59.976Z,56.60
2022-12-09T06:54:08.351Z,56.90
2022-12-09T06:56:16.925Z,57.10
2022-12-09T06:58:23.919Z,56.40
2022-12-09T07:00:31.621Z,56.10
2022-12-09T07:02:39.114Z,56.30
2022-12-09T07:04:46.975Z,57.00
2022-12-09T07:06:54.345Z,56.30
2022-12-09T07:09:07.241Z,56.10
2022-12-09T07:11:14.731Z,54.50
2022-12-09T07:13:22.299Z,54.90
2022-12-09T07:15:29.778Z,55.90
2022-12-09T07:17:37.145Z,57.10
2022-12-09T07:19:44.392Z,57.20
2022-12-09T07:21:53.127Z,57.40
2022-12-09T07:24:05.332Z,56.80
2022-12-09T07:26:13.156Z,56.50
2022-12-09T07:28:20.349Z,56.30
2022-12-09T07:30:27.979Z,56.50
2022-12-09T07:32:35.650Z,56.30
2022-12-09T07:34:44.055Z,55.80
2022-12-09T07:36:51.395Z,56.30
2022-12-09T07:38:59.457Z,55.60
2022-12-09T07:41:19.315Z,55.60
2022-12-09T07:43:27.157Z,56.40
2022-12-09T07:45:37.232Z,56.70
2022-12-09T07:47:44.797Z,57.10
2022-12-09T07:49:52.765Z,57.00
2022-12-09T07:52:00.258Z,56.90
2022-12-09T07:54:08.097Z,57.00
2022-12-09T07:56:18.596Z,56.60
2022-12-09T07:58:25.814Z,56.50
2022-12-09T08:00:33.314Z,57.20
2022-12-09T08:02:40.471Z,56.90
2022-12-09T08:04:48.590Z,55.50
2022-12-09T08:07:00.637Z,55.90
2022-12-09T08:09:10.279Z,55.60
2022-12-09T08:11:22.444Z,55.80
2022-12-09T08:13:29.162Z,55.60
2022-12-09T08:15:36.572Z,55.40
2022-12-09T08:17:43.680Z,55.80
2022-12-09T08:19:52.310Z,55.50
2022-12-09T08:21:59.755Z,55.80
2022-12-09T08:24:08.979Z,55.90
2022-12-09T08:26:19.233Z,56.50
2022-12-09T08:28:27.038Z,56.50
2022-12-09T08:30:35.077Z,56.40
2022-12-09T08:32:42.848Z,56.80
2022-12-09T08:34:50.356Z,56.80
2022-12-09T08:37:01.983Z,57.20
2022-12-09T08:39:09.238Z,57.20
2022-12-09T08:41:19.461Z,56.40
2022-12-09T08:43:27.065Z,57.90
2022-12-09T08:45:37.863Z,58.20
2022-12-09T08:47:45.214Z,57.80
2022-12-09T08:49:53.195Z,57.60
2022-12-09T08:52:01.179Z,57.80
2022-12-09T08:54:09.932Z,57.90
2022-12-09T08:56:20.186Z,58.00
2022-12-09T08:58:28.088Z,57.80
2022-12-09T09:00:35.108Z,57.90
2022-12-09T09:02:42.941Z,58.10
2022-12-09T09:04:50.776Z,58.30
2022-12-09T09:06:58.697Z,58.50
2022-12-09T09:09:06.069Z,58.70
2022-12-09T09:11:16.216Z,58.60
2022-12-09T09:13:25.091Z,58.80
2022-12-09T09:15:32.817Z,59.30
2022-12-09T09:17:40.231Z,59.70
2022-12-09T09:19:48.637Z,60.30
2022-12-09T09:21:56.947Z,60.50
2022-12-09T09:24:04.815Z,60.10
2022-12-09T09:26:15.201Z,60.00
2022-12-09T09:28:29.105Z,60.00
2022-12-09T09:30:38.659Z,59.90
2022-12-09T09:32:46.595Z,60.20
2022-12-09T09:34:55.514Z,60.30
2022-12-09T09:37:03.641Z,60.40
2022-12-09T09:39:11.191Z,60.20
2022-12-09T09:41:46.297Z,60.60
2022-12-09T09:43:56.331Z,61.50
2022-12-09T09:46:04.586Z,61.50
2022-12-09T09:48:18.578Z,61.80
2022-12-09T09:50:33.642Z,62.00
2022-12-09T09:52:44.712Z,62.00
2022-12-09T09:54:52.137Z,62.20
2022-12-09T09:57:03.607Z,62.70
2022-12-09T09:59:18.829Z,63.10
2022-12-09T10:01:30.569Z,62.70
2022-12-09T10:03:45.925Z,62.80
2022-12-09T10:05:58.395Z,62.60
2022-12-09T10:08:21.809Z,63.00
2022-12-09T10:10:40.602Z,63.20
2022-12-09T10:13:18.744Z,63.10
2022-12-09T10:15:35.802Z,63.30
2022-12-09T10:17:51.199Z,63.50
2022-12-09T10:20:01.937Z,63.60
2022-12-09T10:22:21.229Z,64.00
2022-12-09T10:24:38.757Z,64.30
2022-12-09T10:26:50.315Z,64.40
2022-12-09T10:29:02.554Z,65.30
2022-12-09T10:31:14.300Z,65.80
2022-12-09T10:33:24.293Z,66.20
2022-12-09T10:35:34.009Z,66.90
2022-12-09T10:37:42.261Z,67.40
2022-12-09T10:39:50.983Z,67.70
2022-12-09T10:42:16.884Z,67.70
2022-12-09T10:44:26.157Z,68.20
2022-12-09T10:46:35.675Z,69.00
2022-12-09T10:48:54.900Z,70.30
2022-12-09T10:51:04.277Z,70.80
2022-12-09T10:53:18.253Z,70.60
2022-12-09T10:55:29.914Z,71.80
2022-12-09T10:57:36.866Z,72.30
2022-12-09T10:59:45.643Z,74.10
2022-12-09T11:01:57.135Z,72.80
2022-12-09T11:04:16.770Z,73.10
2022-12-09T11:06:28.563Z,72.30
2022-12-09T11:08:37.173Z,71.50
2022-12-09T11:10:53.488Z,71.90
2022-12-09T11:13:06.353Z,72.80
2022-12-09T11:15:32.332Z,73.60
2022-12-09T11:17:44.150Z,75.20
2022-12-09T11:19:53.271Z,74.90
2022-12-09T11:22:37.304Z,77.30
2022-12-09T11:24:45.799Z,74.60
2022-12-09T11:26:54.324Z,74.10
2022-12-09T11:29:06.773Z,74.60
2022-12-09T11:31:29.372Z,75.30
2022-12-09T11:33:41.628Z,75.70
2022-12-09T11:35:59.017Z,76.20
2022-12-09T11:38:20.237Z,76.00
2022-12-09T11:40:29.159Z,75.50
2022-12-09T11:42:36.290Z,74.80
2022-12-09T11:44:45.160Z,75.10
2022-12-09T11:47:04.449Z,75.70
2022-12-09T11:49:19.800Z,76.40
2022-12-09T11:51:29.848Z,77.40
2022-12-09T11:53:42.353Z,77.80
2022-12-09T11:55:51.481Z,78.20
2022-12-09T11:58:01.234Z,78.50
2022-12-09T12:00:19.514Z,78.90
2022-12-09T12:02:35.554Z,78.90
2022-12-09T12:04:56.182Z,79.20
2022-12-09T12:07:08.668Z,79.40
2022-12-09T12:09:20.396Z,79.30
2022-12-09T12:11:32.031Z,79.20
2022-12-09T12:13:43.564Z,79.00
2022-12-09T12:15:52.931Z,78.70
2022-12-09T12:18:01.870Z,78.50
2022-12-09T12:20:15.591Z,78.30
2022-12-09T12:22:43.117Z,78.70
2022-12-09T12:25:21.182Z,79.70
2022-12-09T12:27:41.663Z,79.70
2022-12-09T12:29:57.087Z,79.60
2022-12-09T12:32:40.418Z,79.70
2022-12-09T12:35:03.724Z,80.50
2022-12-09T12:37:27.651Z,80.40
2022-12-09T12:39:50.091Z,80.60
2022-12-09T12:42:02.905Z,81.20
2022-12-09T12:44:41.212Z,80.80
2022-12-09T12:46:57.869Z,80.80
2022-12-09T12:49:27.834Z,80.90
2022-12-09T12:51:42.648Z,81.30
2022-12-09T12:53:58.523Z,81.50
2022-12-09T12:56:10.680Z,82.10
2022-12-09T12:58:25.183Z,82.10
2022-12-09T13:00:38.508Z,82.20
2022-12-09T13:02:58.771Z,82.20
2022-12-09T13:05:16.837Z,81.80
2022-12-09T13:07:33.284Z,81.80
2022-12-09T13:09:47.479Z,81.90
2022-12-09T13:12:06.384Z,82.00
2022-12-09T13:14:19.251Z,82.60
2022-12-09T13:16:31.211Z,82.60
2022-12-09T13:18:41.601Z,82.70
2022-12-09T13:20:52.281Z,83.00
2022-12-09T13:23:05.127Z,82.70
2022-12-09T13:25:21.729Z,82.70
2022-12-09T13:27:37.362Z,82.80
2022-12-09T13:29:50.127Z,82.90
2022-12-09T13:32:05.452Z,83.00
2022-12-09T13:34:26.347Z,83.20
2022-12-09T13:36:40.898Z,83.00
2022-12-09T13:38:48.733Z,82.90
2022-12-09T13:40:57.672Z,83.10
2022-12-09T13:43:14.581Z,83.20
2022-12-09T13:45:27.398Z,83.60
2022-12-09T13:47:39.697Z,83.60
2022-12-09T13:49:55.019Z,83.40
2022-12-09T13:52:02.406Z,83.20
2022-12-09T13:54:09.434Z,83.30
2022-12-09T13:56:28.752Z,83.70
2022-12-09T13:59:07.265Z,84.20
2022-12-09T14:01:25.865Z,84.40
2022-12-09T14:03:36.669Z,83.90
2022-12-09T14:05:44.381Z,84.20
2022-12-09T14:07:54.216Z,84.30
2022-12-09T14:10:02.425Z,84.10
2022-12-09T14:12:14.011Z,84.10
2022-12-09T14:14:56.776Z,84.20
2022-12-09T14:17:06.519Z,84.50
2022-12-09T14:20:01.574Z,84.20
2022-12-09T14:22:37.000Z,84.60
2022-12-09T14:24:44.095Z,84.60
2022-12-09T14:27:11.604Z,84.30
2022-12-09T14:29:50.533Z,84.60
2022-12-09T14:32:06.774Z,85.00
2022-12-09T14:34:41.181Z,85.00
2022-12-09T14:36:57.898Z,85.10
2022-12-09T14:39:24.152Z,85.10
2022-12-09T14:41:38.017Z,85.20
2022-12-09T14:44:00.967Z,85.00
2022-12-09T14:46:21.105Z,85.10
2022-12-09T14:48:30.793Z,85.20
2022-12-09T14:50:39.722Z,85.30
2022-12-09T14:52:55.399Z,85.50
2022-12-09T14:55:05.647Z,85.90
2022-12-09T14:57:22.203Z,85.50
2022-12-09T14:59:30.971Z,85.40
2022-12-09T15:01:57.167Z,85.60
2022-12-09T15:04:04.386Z,86.00
2022-12-09T15:06:20.372Z,85.80
2022-12-09T15:08:36.360Z,85.90
2022-12-09T15:10:43.795Z,86.30
2022-12-09T15:12:53.948Z,86.20
2022-12-09T15:15:04.402Z,86.20
2022-12-09T15:17:18.037Z,86.10
2022-12-09T15:19:59.139Z,86.00
2022-12-09T15:21:56.722Z,85.90
2022-12-09T15:24:04.467Z,85.80
2022-12-09T15:26:21.401Z,85.70
2022-12-09T15:28:30.247Z,85.80
2022-12-09T15:30:40.448Z,86.30
2022-12-09T15:32:49.475Z,86.70
2022-12-09T15:34:57.423Z,86.80
2022-12-09T15:37:07.732Z,87.00
2022-12-09T15:39:21.568Z,87.50
2022-12-09T15:41:50.303Z,87.30
2022-12-09T15:43:59.123Z,87.40
2022-12-09T15:46:07.013Z,87.20
2022-12-09T15:48:21.063Z,87.30
2022-12-09T15:50:33.880Z,87.00
2022-12-09T15:52:45.721Z,87.00
2022-12-09T15:54:53.975Z,86.70
2022-12-09T15:57:03.204Z,86.70
2022-12-09T15:59:13.766Z,87.00
2022-12-09T16:01:25.567Z,87.20
2022-12-09T16:03:36.938Z,87.80
2022-12-09T16:05:43.967Z,88.00
2022-12-09T16:07:57.947Z,88.80
2022-12-09T16:10:12.741Z,89.30
2022-12-09T16:12:31.313Z,90.00
2022-12-09T16:14:46.380Z,90.90
2022-12-09T16:16:55.098Z,90.80
2022-12-09T16:19:03.920Z,90.90
2022-12-09T16:21:28.660Z,91.10
2022-12-09T16:23:36.921Z,91.50
2022-12-09T16:25:49.322Z,91.10
2022-12-09T16:28:03.520Z,90.90
2022-12-09T16:30:17.203Z,90.50
2022-12-09T16:32:27.866Z,90.30
2022-12-09T16:34:37.436Z,90.30
2022-12-09T16:36:57.541Z,90.30
2022-12-09T16:39:36.258Z,90.40
2022-12-09T16:41:59.776Z,90.40
2022-12-09T16:44:20.884Z,90.50
2022-12-09T16:46:41.273Z,90.50
2022-12-09T16:48:52.499Z,90.80
2022-12-09T16:51:15.815Z,90.80
2022-12-09T16:53:24.529Z,90.70
2022-12-09T16:55:33.194Z,90.70
2022-12-09T16:57:40.174Z,90.80
2022-12-09T16:59:48.067Z,90.90
2022-12-09T17:01:55.144Z,91.30
2022-12-09T17:04:05.095Z,91.50
2022-12-09T17:06:17.604Z,91.50
2022-12-09T17:08:26.079Z,91.60
2022-12-09T17:10:33.141Z,91.60
2022-12-09T17:12:41.210Z,91.30
2022-12-09T17:14:48.376Z,91.10
2022-12-09T17:16:56.158Z,91.20
2022-12-09T17:19:03.249Z,90.90
2022-12-09T17:21:14.014Z,91.10
2022-12-09T17:23:21.146Z,90.80
2022-12-09T17:25:30.733Z,90.90
2022-12-09T17:27:37.864Z,90.90
2022-12-09T17:29:46.632Z,90.70
2022-12-09T17:31:53.659Z,90.50
2022-12-09T17:34:01.303Z,90.20
2022-12-09T17:36:08.894Z,90.10
2022-12-09T17:38:18.073Z,90.10
2022-12-09T17:40:25.205Z,90.10
2022-12-09T17:42:32.898Z,90.00
2022-12-09T17:44:40.489Z,89.90
2022-12-09T17:46:47.877Z,89.90
2022-12-09T17:48:54.903Z,89.70
2022-12-09T17:51:02.339Z,89.30
2022-12-09T17:53:09.625Z,89.20
2022-12-09T17:55:18.854Z,89.60
2022-12-09T17:57:25.831Z,89.10
2022-12-09T17:59:33.222Z,89.10
2022-12-09T18:01:42.026Z,89.10
2022-12-09T18:03:58.562Z,89.20
2022-12-09T18:06:09.920Z,89.20
2022-12-09T18:08:17.319Z,89.20
2022-12-09T18:10:26.072Z,88.90
2022-12-09T18:12:33.561Z,89.10
2022-12-09T18:14:40.742Z,89.10
2022-12-09T18:16:50.171Z,89.00
2022-12-09T18:18:57.514Z,88.90
2022-12-09T18:21:05.913Z,88.90
2022-12-09T18:23:15.254Z,88.70
2022-12-09T18:25:22.592Z,88.60
2022-12-09T18:27:31.512Z,88.60
2022-12-09T18:29:39.259Z,88.00
2022-12-09T18:31:48.191Z,88.00
2022-12-09T18:33:56.999Z,88.10
2022-12-09T18:36:10.990Z,88.00
2022-12-09T18:38:18.274Z,88.10
2022-12-09T18:40:25.251Z,87.60
2022-12-09T18:42:34.070Z,87.80
2022-12-09T18:44:41.407Z,87.70
2022-12-09T18:46:50.603Z,87.50
2022-12-09T18:49:01.505Z,87.50
2022-12-09T18:51:10.788Z,87.80
2022-12-09T18:53:17.813Z,88.10
2022-12-09T18:55:26.224Z,87.80
2022-12-09T18:57:35.044Z,87.80
2022-12-09T18:59:42.279Z,88.10
2022-12-09T19:01:50.288Z,88.00
2022-12-09T19:03:59.302Z,87.60
2022-12-09T19:06:06.432Z,87.30
2022-12-09T19:08:13.969Z,87.50
2022-12-09T19:10:21.204Z,87.30
2022-12-09T19:12:57.170Z,87.20
2022-12-09T19:14:57.431Z,86.90
2022-12-09T19:17:04.869Z,86.60
2022-12-09T19:19:13.800Z,86.80
2022-12-09T19:21:23.327Z,87.00
2022-12-09T19:23:30.410Z,86.80
2022-12-09T19:25:37.741Z,86.50
2022-12-09T19:27:45.743Z,86.60
2022-12-09T19:29:52.873Z,86.50
2022-12-09T19:32:02.001Z,86.30
2022-12-09T19:34:11.541Z,86.40
2022-12-09T19:36:19.691Z,86.40
2022-12-09T19:38:26.672Z,86.50
2022-12-09T19:40:33.954Z,86.40
2022-12-09T19:42:40.931Z,86.20
2022-12-09T19:45:07.616Z,86.10
2022-12-09T19:47:18.075Z,85.90
2022-12-09T19:49:26.794Z,85.90
2022-12-09T19:51:33.823Z,86.10
2022-12-09T19:53:41.620Z,86.20
2022-12-09T19:55:50.131Z,86.20
2022-12-09T19:57:57.623Z,86.30
2022-12-09T20:00:05.838Z,86.40
2022-12-09T20:02:15.260Z,85.90
2022-12-09T20:04:48.239Z,85.80
2022-12-09T20:06:54.560Z,85.70
2022-12-09T20:09:03.175Z,85.80
2022-12-09T20:11:15.270Z,85.80
2022-12-09T20:13:24.211Z,86.20
2022-12-09T20:15:34.452Z,86.80
2022-12-09T20:17:41.678Z,87.30
2022-12-09T20:19:51.575Z,87.30
2022-12-09T20:21:58.956Z,87.10
2022-12-09T20:24:06.589Z,87.30
2022-12-09T20:26:15.375Z,87.40
2022-12-09T20:28:22.962Z,87.50
2022-12-09T20:30:30.454Z,87.60
2022-12-09T20:32:37.837Z,87.60
2022-12-09T20:34:44.969Z,87.80
2022-12-09T20:36:54.251Z,88.10
2022-12-09T20:39:02.585Z,88.40
2022-12-09T20:41:12.190Z,88.90
2022-12-09T20:43:19.206Z,89.10
2022-12-09T20:45:26.356Z,89.50
2022-12-09T20:47:33.742Z,90.00
2022-12-09T20:49:41.233Z,90.20
2022-12-09T20:51:49.694Z,90.40
2022-12-09T20:53:59.590Z,90.60
2022-12-09T20:56:07.692Z,90.80
2022-12-09T20:58:15.282Z,90.80
2022-12-09T21:00:22.772Z,91.00
2022-12-09T21:02:30.208Z,91.10
2022-12-09T21:04:37.388Z,91.20
2022-12-09T21:06:45.339Z,91.30
2022-12-09T21:08:52.471Z,91.40
2022-12-09T21:11:08.817Z,91.60
2022-12-09T21:13:15.909Z,91.90
2022-12-09T21:15:24.562Z,92.00
2022-12-09T21:19:58.023Z,92.00
2022-12-09T21:22:05.565Z,92.30
2022-12-09T21:24:14.385Z,92.50
2022-12-09T21:26:24.431Z,92.50
2022-12-09T21:28:32.485Z,92.30
2022-12-09T21:30:42.126Z,92.20
2022-12-09T21:32:49.816Z,92.10
2022-12-09T21:34:59.046Z,91.80
2022-12-09T21:37:06.074Z,91.80
2022-12-09T21:39:15.563Z,91.70
2022-12-09T21:41:25.920Z,91.80
2022-12-09T21:43:33.406Z,91.70
2022-12-09T21:45:40.661Z,91.70
2022-12-09T21:47:48.126Z,91.60
2022-12-09T21:49:55.410Z,91.30
2022-12-09T21:52:02.899Z,91.10
2022-12-09T21:54:10.133Z,91.00
2022-12-09T21:56:18.543Z,91.00
2022-12-09T21:58:27.260Z,91.10
2022-12-09T22:00:34.646Z,91.10
2022-12-09T22:02:42.419Z,91.10
2022-12-09T22:04:49.931Z,91.40
2022-12-09T22:06:56.857Z,91.40
2022-12-09T22:09:05.012Z,91.60
2022-12-09T22:11:13.575Z,91.70
2022-12-09T22:13:20.912Z,91.50
2022-12-09T22:15:29.628Z,91.60
2022-12-09T22:17:37.944Z,91.40
2022-12-09T22:19:45.097Z,91.50
2022-12-09T22:21:52.796Z,91.40
2022-12-09T22:24:01.170Z,91.40
2022-12-09T22:26:09.888Z,91.30
2022-12-09T22:28:16.864Z,91.70
2022-12-09T22:30:24.302Z,92.10
2022-12-09T22:32:37.954Z,92.30
2022-12-09T22:34:48.289Z,92.50
2022-12-09T22:36:58.133Z,92.50
2022-12-09T22:39:11.874Z,92.20
2022-12-09T22:41:20.075Z,92.60
2022-12-09T22:43:27.309Z,92.60
2022-12-09T22:45:34.236Z,92.90
2022-12-09T22:47:42.938Z,93.40
2022-12-09T22:49:49.929Z,93.70
2022-12-09T22:52:00.559Z,93.70
2022-12-09T22:54:11.001Z,93.90
2022-12-09T22:56:18.642Z,93.60
2022-12-09T22:58:25.772Z,93.30
2022-12-09T23:00:33.057Z,92.80
2022-12-09T23:02:41.834Z,92.80
2022-12-09T23:04:49.416Z,92.90
2022-12-09T23:06:56.494Z,93.10
2022-12-09T23:09:03.740Z,93.20
2022-12-09T23:11:12.242Z,93.30
2022-12-09T23:13:19.680Z,93.60
2022-12-09T23:15:26.594Z,93.60
2022-12-09T23:17:33.735Z,93.70
2022-12-09T23:19:42.503Z,93.70
2022-12-09T23:21:49.737Z,93.50
2022-12-09T23:23:57.467Z,93.50
2022-12-09T23:26:09.017Z,93.60
2022-12-09T23:28:15.670Z,93.20
2022-12-09T23:30:22.748Z,93.20
2022-12-09T23:32:29.536Z,93.30
2022-12-09T23:34:36.774Z,93.20
2022-12-09T23:36:46.458Z,93.10
2022-12-09T23:38:54.715Z,93.10
2022-12-09T23:41:01.640Z,93.10
2022-12-09T23:43:08.772Z,93.00
2022-12-09T23:45:15.902Z,92.90
2022-12-09T23:47:23.339Z,92.70
2022-12-09T23:49:30.523Z,92.50
2022-12-09T23:51:39.297Z,92.50
2022-12-09T23:53:49.117Z,92.50
2022-12-09T23:55:56.419Z,92.80
2022-12-09T23:58:03.558Z,92.90
